• Join FlightAware (Why Join?)
  • Login
  • US Flag 
07:53PM EST


 

Airport Tracker/Info


-or-


 

Live Flight TrackerFlight Track Log ✈ AAY816 ✈ 09-Jul-2014 ✈ KPIE - KHTS

Flight Track Log - Related Links

Times and Time Zones

All times are in EDT time to prevent confusion due to time zone crossing. See the AAY816 flight status page for this flight to view local times or setup timezone preferences in your user account.

Time Position Orientation Groundspeed Altitude Reporting Facility
EDT Latitude Longitude Course Direction KTS MPH feet Rate Location/Type
04:35PM 29.2670 -82.6166 North  Level FlightAware Approximate
04:36PM 29.3794 -82.6000 North  Level FlightAware Approximate
04:37PM 29.4928 -82.6000 North  Level FlightAware Approximate
04:37PM 29.0158 -82.6861 North 416 479 23,400  Level Miami Center
04:38PM 29.6059 -82.5935 North  Level FlightAware Approximate
04:38PM 29.1372 -82.6861 360° North 429 494 24,700  Level Miami Center
04:39PM 29.7187 -82.5833 North  Level FlightAware Approximate
04:39PM 29.2914 -82.6853 360° North 435 501 26,100  Level Jacksonville Center
04:40PM 29.8320 -82.5799 North  Level FlightAware Approximate
04:40PM 29.4186 -82.6853 360° North 445 512 27,300  Level Jacksonville Center
04:41PM 29.9452 -82.5718 North  Level FlightAware Approximate
04:41PM 29.5503 -82.6872 359° North 466 536 28,400  Level Jacksonville Center
04:42PM 30.0586 -82.5716 North  Level Estimated
04:42PM 29.6839 -82.6869 360° North 472 543 29,300  Level Jacksonville Center
04:43PM 30.1598 -82.6306 333° Northwest  Level FlightAware Approximate
04:43PM 29.8153 -82.6892 359° North 479 551 30,200  Level Jacksonville Center
04:44PM 30.2732 -82.6298 North  Level Estimated
04:44PM 29.9511 -82.6889 360° North 474 545 31,300  Level Jacksonville Center
04:45PM 30.3842 -82.6560 348° North  Level FlightAware Approximate
04:45PM 30.0764 -82.6839 North 480 552 32,300  Level Jacksonville Center
04:46PM 30.4976 -82.6547 10° North  Level Estimated
04:46PM 30.2078 -82.6836 360° North 475 547 33,300  Level Jacksonville Center
04:47PM 30.6106 -82.6445 North  Level FlightAware Approximate
04:47PM 30.3414 -82.6856 359° North 475 547 34,200  Level Jacksonville Center
04:48PM 30.4772 -82.6853 360° North 475 547 35,000 360 Climbing Jacksonville Center
04:49PM 30.6214 -82.6681 North 475 547 35,000  Level Jacksonville Center
04:50PM 30.7528 -82.6461 North 475 547 35,000  Level Jacksonville Center
04:51PM 30.8842 -82.6239 North 480 552 35,000  Level Jacksonville Center
04:52PM 31.0158 -82.6017 North 480 552 35,000  Level Jacksonville Center
04:53PM 31.1389 -82.5819 North 470 541 35,000 -60 Level Jacksonville Center
04:54PM 31.2661 -82.5597 North 461 531 34,900  Descending Jacksonville Center
04:55PM 31.3769 -82.5347 11° North 455 524 35,000  Climbing Jacksonville Center
04:56PM 31.4978 -82.5150 North 450 518 35,000  Level Jacksonville Center
04:57PM 31.6211 -82.4950 North 444 511 35,000  Level Jacksonville Center
04:58PM 31.7742 -82.4731 North 446 513 35,000  Level Atlanta Center
04:59PM 31.8908 -82.4539 North 451 519 35,000  Level Atlanta Center
05:00PM 32.0117 -82.4344 North 443 510 35,000  Level Atlanta Center
05:01PM 32.1344 -82.4153 North 443 510 35,000  Level Atlanta Center
05:02PM 32.2325 -82.3986 North 443 510 35,000  Level Atlanta Center
05:03PM 32.3658 -82.3764 North 443 510 35,000  Level Atlanta Center
05:04PM 32.4867 -82.3594 North 443 510 35,100  Climbing Atlanta Center
05:05PM 32.6094 -82.3397 North 443 510 35,000  Descending Atlanta Center
05:06PM 32.7303 -82.3228 North 443 510 35,100 420 Climbing Atlanta Center
05:07PM 32.8531 -82.3006 North 443 510 35,900 600 Climbing Atlanta Center
05:08PM 32.9758 -82.2808 North 443 510 36,400 540 Climbing Atlanta Center
05:09PM 33.1008 -82.2608 North 443 510 37,000 660 Climbing Atlanta Center
05:10PM 33.2242 -82.2658 358° North 443 510 37,800 480 Climbing Atlanta Center
05:11PM 33.3494 -82.2731 357° North 443 510 38,000 60 Climbing Atlanta Center
05:12PM 33.4686 -82.2783 358° North 437 503 38,000  Level Atlanta Center
05:13PM 33.6067 -82.3028 352° North 442 509 38,000  Level Atlanta Center
05:14PM 33.7239 -82.3256 351° North 437 503 38,000  Level Atlanta Center
05:15PM 33.8411 -82.3456 352° North 429 494 38,000  Level Atlanta Center
05:16PM 33.9622 -82.3658 352° North 429 494 38,000  Level Atlanta Center
05:17PM 34.0814 -82.3808 354° North 429 494 38,000  Level Atlanta Center
05:18PM 34.2067 -82.3861 358° North 434 499 38,100  Climbing Atlanta Center
05:19PM 34.3300 -82.3911 358° North 439 505 38,000 -60 Descending Atlanta Center
05:20PM 34.4428 -82.3964 358° North 444 511 38,000  Level Atlanta Center
05:21PM 34.5661 -82.4017 358° North 444 511 38,000  Level Atlanta Center
05:22PM 34.6892 -82.4044 359° North 444 511 38,000  Level Atlanta Center
05:23PM 34.8167 -82.4119 357° North 444 511 38,000  Level Atlanta Center
05:24PM 34.9397 -82.4147 359° North 449 517 38,000  Level Atlanta Center
05:25PM 35.0631 -82.4250 356° North 442 509 38,000  Level Atlanta Center
05:26PM 35.1861 -82.4250 360° North 442 509 38,000 -300 Level Atlanta Center
05:27PM 35.3114 -82.4353 356° North 442 509 37,500 -780 Descending Atlanta Center
05:28PM 35.4367 -82.4381 359° North 442 509 36,500 -1,020 Descending Atlanta Center
05:29PM 35.5639 -82.4431 358° North 447 514 35,500 -960 Descending Atlanta Center
05:30PM 35.6956 -82.4508 357° North 452 520 34,600 -960 Descending Atlanta Center
05:31PM 35.8394 -82.4531 359° North 466 536 33,600 -1,020 Descending Atlanta Center
05:32PM 35.9750 -82.4581 358° North 477 549 32,600 -1,020 Descending Atlanta Center
05:33PM 36.1067 -82.4633 358° North 477 549 31,600 -1,020 Descending Atlanta Center
05:34PM 36.2358 -82.4686 358° North 477 549 30,600 -960 Descending Atlanta Center
05:35PM 36.3653 -82.4764 357° North 469 540 29,700 -960 Descending Atlanta Center
05:36PM 36.4883 -82.4792 359° North 458 527 28,700 -1,320 Descending Atlanta Center
05:38PM 36.6350 -82.4858 358° North 447 514 26,900 -1,620 Descending Indianapolis Center
05:39PM 36.7544 -82.4900 358° North 438 504 25,200 -1,320 Descending Indianapolis Center
05:40PM 36.8694 -82.4944 358° North 422 486 24,200 -600 Descending Indianapolis Center
05:41PM 36.9831 -82.5006 358° North 415 478 24,000 -1,020 Descending Indianapolis Center
05:42PM 37.0989 -82.5058 358° North 415 478 22,200 -2,040 Descending Indianapolis Center
05:43PM 37.2347 -82.5114 358° North 418 481 19,800 -2,040 Descending Indianapolis Center
05:44PM 37.3436 -82.5167 358° North 399 459 18,000 -1,680 Descending Indianapolis Center
05:45PM 37.4458 -82.5206 358° North 376 433 16,400 -1,560 Descending Indianapolis Center
05:46PM 37.5425 -82.5275 357° North 353 406 14,800 -1,500 Descending Indianapolis Center
05:47PM 37.6375 -82.5922 332° Northwest 339 390 13,300 -1,140 Descending Indianapolis Center
05:48PM 37.7203 -82.6411 335° Northwest 334 384 12,500 -840 Descending Indianapolis Center
05:49PM 37.8103 -82.6508 355° North 335 386 11,600 -780 Descending Indianapolis Center
05:50PM 37.9033 -82.6364 North 336 387 10,900 -840 Descending Indianapolis Center
05:51PM 37.9889 -82.6219 North 317 365 9,900 -1,260 Descending Indianapolis Center
05:52PM 38.0711 -82.6086 North 303 349 8,300 -2,040 Descending Indianapolis Center
05:53PM 38.1628 -82.5917 North 290 334 5,700 -2,280 Descending Indianapolis Center
05:54PM 38.2297 -82.5444 29° Northeast 275 316 3,700 -1,680 Descending Indianapolis Center
05:55PM 38.2931 -82.5031 27° Northeast 261 300 2,300 -960 Descending Indianapolis Center
05:56PM 38.3447 -82.4922 North 231 266 1,800 -540 Descending Indianapolis Center
05:57PM 38.3611 -82.5375 295° West 199 229 1,200 -600 Descending Indianapolis Center
05:59PM 38.3667 -82.5500 North  Level FlightAware Approximate